Flight Number: EUR2034 Duration: 0:50
Departure: Vienna Schwechat (LOWW) at 07:00 Distance: 192 Nm
Arrival: Munich Int'l (EDDM) at 07:50 Equipment: B737

Weather Information
Wien / Schwechat-Flughafen, Austria (LOWW) 48-07N 016-34E 190M Feb 19, 2018 - 02:20 AM EST / 2018.02.19 0720 UTC
Wind: from the E (080 degrees) at 2 MPH (2 KT):0
Visibility: 4 mile(s):0
Sky conditions: mostly clear Temperature: 26 F (-3 C) Dew Point: 23 F (-5 C) Relative Humidity: 86% Pressure (altimeter): 30.24 in. Hg (1024 hPa)
ob: LOWW 190720Z 08002KT 8000 FEW200 M03/M05 Q1024 R88/12//95 NOSIG cycle: 7
Sunrise: 05:56 Sunset: 16:18 (UTC)

Munchen, Germany (EDDM) 48-21N 011-47E Feb 19, 2018 - 02:20 AM EST / 2018.02.19 0720 UTC
Wind: Variable at 1 MPH (1 KT):0
Visibility: greater than 7 mile(s):0
Sky conditions: mostly cloudy Temperature: 24 F (-4 C) Dew Point: 23 F (-5 C) Relative Humidity: 92% Pressure (altimeter): 30.09 in. Hg (1019 hPa)
ob: EDDM 190720Z VRB01KT 9999 BKN010 M04/M05 Q1019 R88/190095 TEMPO BKN008 cycle: 7
Sunrise: 06:15 Sunset: 16:37 (UTC)

TAF:2018/02/19 06:27 TAF EDDM 190500Z 1906/2012 06005KT 8000 BKN012 TEMPO 1907/1918 BKN008 BECMG 1915/1918 VRB03KT BECMG 1920/1922 BKN020

Previous Pireps for this route
Date Aircraft Flight time Fuel used Landing rate On time
2013-04-01B737150000No
2013-07-06B73700.575700-422No
2013-07-06B73701.008599-817No
2013-07-21B7370.5000No
2013-08-15B73701.016744-288No
2013-10-20B7371.0092540No
2014-03-31B73701.199380-574No
2014-04-03B73700.588004-338Charter
2014-06-28B73700.52-12-337No
2014-06-28B7370.5913800No
2015-01-13B73701.075609-153Yes
2015-03-12B73700.494943-86Yes
2015-03-28B73700.494149-273Yes
2015-04-04B73700.484345-256Yes
2015-04-05B73701.088560-479Yes
2015-04-06B73700.503379-138Yes
2015-06-23B7370.4649900Yes
2015-07-12B7370.5557050Yes
(pireps marked green are flown by you)

Route map